Time;durP1;ratioP1;P1;durP2;ratioP2;P2;SDS_P1;SDS_P2;PMS_P1;PMS_P2;Temp;Humidity;BMP_temperature;BMP_pressure;BME280_temperature;BME280_humidity;BME280_pressure;Samples;Min_cycle;Max_cycle;Signal;HPM_P1;HPM_P2
2022/10/01 00:01:03;;;;;;;9.60;6.30;;;11.50;99.90;;;;;;6306996;22;20416;-62
2022/10/01 00:03:31;;;;;;;7.13;5.90;;;11.60;99.90;;;;;;6307727;22;20421;-62
2022/10/01 00:06:00;;;;;;;6.87;5.77;;;11.60;99.90;;;;;;6308610;22;20493;-62
2022/10/01 00:08:27;;;;;;;5.43;4.93;;;11.60;99.90;;;;;;6308890;22;20394;-63
2022/10/01 00:10:55;;;;;;;7.23;5.70;;;11.60;99.90;;;;;;6309675;22;20395;-62
2022/10/01 00:13:24;;;;;;;6.53;5.87;;;11.60;99.90;;;;;;6309433;22;20409;-62
2022/10/01 00:15:52;;;;;;;5.90;4.97;;;11.60;99.90;;;;;;6309408;22;20419;-62
2022/10/01 00:18:19;;;;;;;7.57;5.27;;;11.60;99.90;;;;;;6308991;22;20416;-62
2022/10/01 00:20:48;;;;;;;7.27;6.47;;;11.60;99.90;;;;;;6308699;22;20427;-62
2022/10/01 00:23:15;;;;;;;6.10;5.50;;;11.70;99.90;;;;;;6309206;22;20444;-62
2022/10/01 00:25:43;;;;;;;8.20;5.80;;;11.70;99.90;;;;;;6308761;22;20414;-62
2022/10/01 00:28:13;;;;;;;5.77;5.27;;;11.70;99.90;;;;;;6309325;22;20662;-62
2022/10/01 00:30:48;;;;;;;5.23;4.73;;;11.70;99.90;;;;;;6309459;22;20421;-62
2022/10/01 00:33:15;;;;;;;6.67;5.57;;;11.70;99.90;;;;;;6308661;22;20857;-62
2022/10/01 00:35:44;;;;;;;6.03;4.90;;;11.70;99.90;;;;;;6308074;22;20709;-62
2022/10/01 00:38:14;;;;;;;5.60;5.00;;;11.70;99.90;;;;;;6307023;22;20423;-63
2022/10/01 00:40:41;;;;;;;5.40;4.90;;;11.80;99.90;;;;;;6308139;22;20423;-63
2022/10/01 00:43:30;;;;;;;6.17;5.23;;;11.70;99.90;;;;;;6308086;22;20443;-62
2022/10/01 00:46:04;;;;;;;5.13;4.63;;;11.80;99.90;;;;;;6282050;22;20448;-61
2022/10/01 00:48:36;;;;;;;5.70;5.10;;;11.70;99.90;;;;;;6301817;22;20423;-63
2022/10/01 00:51:05;;;;;;;7.90;4.90;;;11.70;99.90;;;;;;6309313;22;20709;-63
2022/10/01 00:53:33;;;;;;;5.57;5.03;;;11.60;99.90;;;;;;6308659;22;20870;-63
2022/10/01 00:56:02;;;;;;;10.03;5.47;;;11.60;99.90;;;;;;6308128;22;20391;-64
2022/10/01 00:58:29;;;;;;;5.67;4.90;;;11.50;99.90;;;;;;6308067;22;20417;-64
2022/10/01 01:00:59;;;;;;;8.27;5.30;;;11.50;99.90;;;;;;6307150;22;20449;-60
2022/10/01 01:03:26;;;;;;;7.33;5.90;;;11.40;99.90;;;;;;6309149;22;20505;-54
2022/10/01 01:05:56;;;;;;;5.90;5.37;;;11.40;99.90;;;;;;6309277;22;20420;-60
2022/10/01 01:08:29;;;;;;;6.73;5.57;;;11.30;99.90;;;;;;6309338;22;20416;-61
2022/10/01 01:11:07;;;;;;;6.33;5.73;;;11.20;1.00;;;;;;6308738;22;20416;-62
2022/10/01 01:13:43;;;;;;;6.90;6.20;;;11.10;1.00;;;;;;6307942;22;20436;-63
2022/10/01 01:16:19;;;;;;;6.73;5.93;;;11.00;1.00;;;;;;6306977;22;20511;-63
2022/10/01 01:18:53;;;;;;;7.03;6.33;;;11.00;1.00;;;;;;6307745;22;20750;-64
2022/10/01 01:21:30;;;;;;;6.40;5.90;;;10.80;1.00;;;;;;6307482;22;20599;-63
2022/10/01 01:24:31;;;;;;;7.17;6.47;;;10.80;99.90;;;;;;6307230;22;20447;-63
2022/10/01 01:27:15;;;;;;;8.90;6.80;;;10.60;99.90;;;;;;6307947;22;20394;-63
2022/10/01 01:29:51;;;;;;;10.73;6.43;;;10.60;1.00;;;;;;6309168;22;20889;-62
2022/10/01 01:32:28;;;;;;;7.33;6.43;;;10.50;99.90;;;;;;6308588;22;20714;-63
2022/10/01 01:35:01;;;;;;;7.03;6.33;;;10.50;9.90;;;;;;6309078;22;20411;-62
2022/10/01 01:37:33;;;;;;;6.83;6.23;;;10.40;1.00;;;;;;6309441;22;20909;-62
2022/10/01 01:40:06;;;;;;;9.70;6.80;;;10.40;1.00;;;;;;6309550;22;20391;-62
2022/10/01 01:42:36;;;;;;;7.80;7.03;;;10.40;99.90;;;;;;6308730;22;20391;-62
2022/10/01 01:45:12;;;;;;;7.50;6.57;;;10.40;99.90;;;;;;6309468;22;20722;-62
2022/10/01 01:47:43;;;;;;;10.27;7.40;;;10.30;88.20;;;;;;6308706;22;20853;-62
2022/10/01 01:50:14;;;;;;;7.90;7.10;;;10.30;99.90;;;;;;6308715;22;20507;-63
2022/10/01 01:52:42;;;;;;;7.00;6.30;;;10.20;1.00;;;;;;6308797;22;20416;-64
2022/10/01 01:55:10;;;;;;;8.57;7.23;;;10.20;99.90;;;;;;6309274;22;20393;-63
2022/10/01 01:57:40;;;;;;;7.37;6.13;;;10.10;1.00;;;;;;6309463;22;20415;-64
2022/10/01 02:00:11;;;;;;;7.83;6.57;;;10.20;1.00;;;;;;6308483;22;20422;-63
2022/10/01 02:02:40;;;;;;;10.20;6.80;;;10.10;1.00;;;;;;6310258;22;20398;-62
2022/10/01 02:05:11;;;;;;;8.57;7.70;;;10.10;20.50;;;;;;6310977;22;20525;-63
2022/10/01 02:08:26;;;;;;;10.83;6.80;;;10.10;78.30;;;;;;6310152;22;20764;-63
2022/10/01 02:11:23;;;;;;;8.47;7.33;;;10.00;99.90;;;;;;6311234;22;20804;-64
2022/10/01 02:14:07;;;;;;;10.20;8.57;;;10.00;99.90;;;;;;6310083;22;20561;-64
2022/10/01 02:16:48;;;;;;;9.23;6.80;;;10.00;99.90;;;;;;6310051;22;20420;-64
2022/10/01 02:19:23;;;;;;;7.83;6.97;;;10.00;99.90;;;;;;6311327;22;20763;-62
2022/10/01 02:21:58;;;;;;;6.93;6.23;;;9.90;99.90;;;;;;6311325;22;20416;-64
2022/10/01 02:24:37;;;;;;;8.67;7.63;;;10.00;99.90;;;;;;6308283;22;20961;-67
2022/10/01 02:27:08;;;;;;;7.40;6.30;;;10.00;99.90;;;;;;6311136;22;20767;-65
2022/10/01 02:29:38;;;;;;;7.57;6.77;;;9.90;99.90;;;;;;6310575;22;20414;-64
2022/10/01 02:32:08;;;;;;;7.40;5.97;;;9.90;99.90;;;;;;6310571;22;20420;-64
2022/10/01 02:34:36;;;;;;;9.63;7.23;;;9.90;99.90;;;;;;6310630;22;20729;-64
2022/10/01 02:37:06;;;;;;;8.03;6.77;;;10.00;99.90;;;;;;6310141;22;20448;-63
2022/10/01 02:39:34;;;;;;;7.23;6.53;;;9.90;99.90;;;;;;6310884;22;20464;-63
2022/10/01 02:42:03;;;;;;;11.53;7.50;;;9.90;99.90;;;;;;6310864;22;20844;-63
2022/10/01 02:44:37;;;;;;;7.10;6.40;;;10.00;99.90;;;;;;6310446;22;20817;-62
2022/10/01 02:47:09;;;;;;;7.83;6.60;;;9.90;99.90;;;;;;6310537;22;20474;-64
2022/10/01 02:49:40;;;;;;;7.63;6.80;;;9.90;99.90;;;;;;6310809;22;20419;-63
2022/10/01 02:52:12;;;;;;;8.20;6.77;;;9.90;99.90;;;;;;6310215;22;20434;-63
2022/10/01 02:54:47;;;;;;;9.00;6.70;;;9.90;99.90;;;;;;6310615;22;20420;-62
2022/10/01 02:57:23;;;;;;;6.40;5.80;;;9.90;99.90;;;;;;6310469;22;20423;-58
2022/10/01 02:59:50;;;;;;;10.17;6.80;;;9.90;99.90;;;;;;6310432;22;20691;-60
2022/10/01 03:02:20;;;;;;;8.30;6.43;;;9.80;99.90;;;;;;6310367;22;20416;-61
2022/10/01 03:04:47;;;;;;;7.73;6.93;;;9.90;99.90;;;;;;6308158;22;20815;-60
2022/10/01 03:07:17;;;;;;;8.13;5.93;;;9.90;99.90;;;;;;6310797;22;20450;-60
2022/10/01 03:09:44;;;;;;;6.50;5.90;;;9.90;99.90;;;;;;6310394;22;20420;-60
2022/10/01 03:12:15;;;;;;;6.40;5.80;;;9.90;99.90;;;;;;6309921;22;20867;-61
2022/10/01 03:14:44;;;;;;;7.10;6.40;;;9.90;99.90;;;;;;6309698;22;20412;-62
2022/10/01 03:17:13;;;;;;;7.77;6.97;;;9.90;99.90;;;;;;6309435;22;20485;-62
2022/10/01 03:19:42;;;;;;;6.60;5.80;;;9.90;99.90;;;;;;6309898;22;20416;-62
2022/10/01 03:22:13;;;;;;;7.77;6.97;;;9.80;99.90;;;;;;6309715;22;20424;-63
2022/10/01 03:24:40;;;;;;;6.90;6.03;;;9.90;99.90;;;;;;6309547;22;20448;-60
2022/10/01 03:27:08;;;;;;;6.60;6.00;;;9.90;99.90;;;;;;6310051;22;20423;-63
2022/10/01 03:29:35;;;;;;;7.93;6.50;;;9.90;99.90;;;;;;6309583;22;20423;-62
2022/10/01 03:32:03;;;;;;;6.63;6.03;;;9.90;99.90;;;;;;6310416;22;20416;-62
2022/10/01 03:34:30;;;;;;;6.10;5.50;;;9.90;99.90;;;;;;6309498;22;20512;-61
2022/10/01 03:36:59;;;;;;;7.00;6.30;;;9.90;99.90;;;;;;6310253;22;20416;-63
2022/10/01 03:39:26;;;;;;;7.30;6.60;;;10.00;99.90;;;;;;6309676;22;20391;-64
2022/10/01 03:41:53;;;;;;;6.60;6.00;;;10.00;99.90;;;;;;6310636;22;20473;-63
2022/10/01 03:44:20;;;;;;;8.90;5.77;;;10.00;99.90;;;;;;6309508;22;20440;-61
2022/10/01 03:46:48;;;;;;;6.90;6.20;;;10.00;99.90;;;;;;6309779;22;20422;-60
2022/10/01 03:49:15;;;;;;;6.60;5.97;;;10.00;99.90;;;;;;6310319;22;20416;-59
2022/10/01 03:51:45;;;;;;;6.23;5.30;;;10.00;99.90;;;;;;6307614;22;20459;-55
2022/10/01 03:54:14;;;;;;;6.33;5.70;;;9.90;99.90;;;;;;6309480;22;20447;-60
2022/10/01 03:56:41;;;;;;;6.07;5.40;;;9.90;99.90;;;;;;6309914;22;20423;-59
2022/10/01 03:59:09;;;;;;;6.90;5.57;;;9.90;99.90;;;;;;6310117;22;20387;-61
2022/10/01 04:01:39;;;;;;;7.13;6.43;;;9.90;99.90;;;;;;6309658;22;20467;-59
2022/10/01 04:04:07;;;;;;;7.40;5.57;;;9.90;99.90;;;;;;6309499;22;20447;-58
2022/10/01 04:06:34;;;;;;;6.30;5.70;;;9.90;99.90;;;;;;6310080;22;20498;-60
2022/10/01 04:09:01;;;;;;;6.67;4.80;;;9.90;99.90;;;;;;6310139;22;20456;-62
2022/10/01 04:11:30;;;;;;;5.40;4.90;;;9.90;99.90;;;;;;6309762;22;20431;-62
2022/10/01 04:13:57;;;;;;;5.73;5.23;;;9.90;99.90;;;;;;6309843;22;20387;-61
2022/10/01 04:16:25;;;;;;;5.60;5.10;;;10.00;99.90;;;;;;6309436;22;20734;-65
2022/10/01 04:18:54;;;;;;;6.40;5.50;;;10.00;99.90;;;;;;6309876;22;20858;-62
2022/10/01 04:21:22;;;;;;;6.10;5.17;;;10.00;99.90;;;;;;6309388;22;20830;-64
2022/10/01 04:23:51;;;;;;;5.53;5.03;;;10.00;99.90;;;;;;6309472;22;20417;-64
2022/10/01 04:26:19;;;;;;;5.03;4.63;;;10.00;99.90;;;;;;6308973;22;20444;-65
2022/10/01 04:28:47;;;;;;;4.57;4.17;;;10.00;99.90;;;;;;6308942;22;20417;-62
2022/10/01 04:31:30;;;;;;;4.70;4.30;;;10.00;99.90;;;;;;6308978;22;20830;-61
2022/10/01 04:34:01;;;;;;;4.90;4.37;;;10.00;99.90;;;;;;6310012;22;20769;-63
2022/10/01 04:36:28;;;;;;;5.20;4.70;;;10.00;99.90;;;;;;6309434;22;20423;-59
2022/10/01 04:38:56;;;;;;;4.53;4.13;;;10.00;99.90;;;;;;6309736;22;20422;-61
2022/10/01 04:41:24;;;;;;;4.57;4.17;;;10.00;99.90;;;;;;6309538;22;20417;-63
2022/10/01 04:43:58;;;;;;;5.40;4.50;;;10.00;99.90;;;;;;6307552;22;20514;-62
2022/10/01 04:46:25;;;;;;;4.40;3.97;;;10.10;99.90;;;;;;6308282;22;20433;-62
2022/10/01 04:48:53;;;;;;;6.10;4.33;;;10.10;99.90;;;;;;6308965;22;20687;-62
2022/10/01 04:51:20;;;;;;;4.07;3.57;;;10.10;99.90;;;;;;6309309;22;20416;-62
2022/10/01 04:53:49;;;;;;;4.23;3.67;;;10.10;99.90;;;;;;6309560;22;20451;-61
2022/10/01 04:56:19;;;;;;;8.43;3.87;;;10.20;99.90;;;;;;6309358;22;20737;-61
2022/10/01 04:58:47;;;;;;;3.53;3.10;;;10.20;99.90;;;;;;6309404;22;20394;-61
2022/10/01 05:01:15;;;;;;;3.37;3.07;;;10.30;99.90;;;;;;6309021;22;20772;-60
2022/10/01 05:03:42;;;;;;;2.97;2.70;;;10.30;99.90;;;;;;6308570;22;20707;-60
2022/10/01 05:06:10;;;;;;;4.30;3.30;;;10.30;99.90;;;;;;6306983;22;20916;-58
2022/10/01 05:08:37;;;;;;;3.33;2.57;;;10.30;99.90;;;;;;6307548;22;20455;-61
2022/10/01 05:11:05;;;;;;;3.70;3.10;;;10.30;99.90;;;;;;6306881;22;20448;-59
2022/10/01 05:13:32;;;;;;;3.10;2.70;;;10.30;99.90;;;;;;6309526;22;20527;-60
2022/10/01 05:16:01;;;;;;;3.10;2.80;;;10.30;99.90;;;;;;6309120;22;20417;-61
2022/10/01 05:18:29;;;;;;;6.33;2.77;;;10.40;99.90;;;;;;6308879;22;20420;-61
2022/10/01 05:20:57;;;;;;;3.43;3.00;;;10.40;99.90;;;;;;6309006;22;20504;-60
2022/10/01 05:23:28;;;;;;;3.27;2.67;;;10.30;99.90;;;;;;6309500;22;20873;-60
2022/10/01 05:25:55;;;;;;;4.43;2.63;;;10.30;99.90;;;;;;6309132;22;20495;-59
2022/10/01 05:28:22;;;;;;;14.37;3.57;;;10.30;99.90;;;;;;6308492;22;20461;-59
2022/10/01 05:30:50;;;;;;;2.93;2.63;;;10.40;99.90;;;;;;6307983;22;20833;-59
2022/10/01 05:33:18;;;;;;;2.60;2.40;;;10.40;99.90;;;;;;6309014;22;20768;-58
2022/10/01 05:35:47;;;;;;;3.23;2.40;;;10.40;99.90;;;;;;6309505;22;20412;-57
2022/10/01 05:38:14;;;;;;;2.90;2.60;;;10.40;99.90;;;;;;6309901;22;20822;-58
2022/10/01 05:40:48;;;;;;;2.43;2.20;;;10.40;99.90;;;;;;6311162;22;20391;-59
2022/10/01 05:43:17;;;;;;;2.33;2.07;;;10.40;99.90;;;;;;6310825;22;20474;-59
2022/10/01 05:45:44;;;;;;;3.27;2.43;;;10.40;99.90;;;;;;6311225;22;20444;-61
2022/10/01 05:48:14;;;;;;;2.67;2.33;;;10.40;99.90;;;;;;6310345;22;20422;-63
2022/10/01 05:50:46;;;;;;;2.63;2.30;;;10.40;99.90;;;;;;6311338;22;20420;-58
2022/10/01 05:53:16;;;;;;;4.07;2.17;;;10.40;99.90;;;;;;6310994;22;20420;-58
2022/10/01 05:55:43;;;;;;;2.70;2.43;;;10.40;99.90;;;;;;6311562;22;20419;-57
2022/10/01 05:58:12;;;;;;;3.10;2.33;;;10.40;99.90;;;;;;6310231;22;20427;-58
2022/10/01 06:00:41;;;;;;;2.37;1.80;;;10.40;99.90;;;;;;6310607;22;20426;-57
2022/10/01 06:03:11;;;;;;;2.30;2.10;;;10.40;99.90;;;;;;6310745;22;20390;-59
2022/10/01 06:05:38;;;;;;;3.27;2.10;;;10.50;99.90;;;;;;6310954;22;20454;-60
2022/10/01 06:08:08;;;;;;;2.40;2.20;;;10.40;99.90;;;;;;6309950;22;20515;-61
2022/10/01 06:10:38;;;;;;;2.20;1.90;;;10.50;99.90;;;;;;6310748;22;20769;-60
2022/10/01 06:13:07;;;;;;;2.50;2.30;;;10.50;99.90;;;;;;6311075;22;20416;-61
2022/10/01 06:15:37;;;;;;;2.30;1.80;;;10.50;99.90;;;;;;6310984;22;20515;-59
2022/10/01 06:18:05;;;;;;;2.73;1.87;;;10.50;99.90;;;;;;6310634;22;20489;-60
2022/10/01 06:20:32;;;;;;;2.53;1.63;;;10.50;99.90;;;;;;6310528;22;20421;-59
2022/10/01 06:23:00;;;;;;;2.00;1.80;;;10.50;99.90;;;;;;6310841;22;20695;-58
2022/10/01 06:25:29;;;;;;;2.57;1.90;;;10.50;99.90;;;;;;6310208;22;20746;-59
2022/10/01 06:28:01;;;;;;;2.30;1.57;;;10.50;99.90;;;;;;6310318;22;20797;-61
2022/10/01 06:30:31;;;;;;;2.60;1.93;;;10.50;99.90;;;;;;6309425;22;20514;-61
2022/10/01 06:33:01;;;;;;;3.23;1.67;;;10.50;99.90;;;;;;6310873;22;20518;-56
2022/10/01 06:35:28;;;;;;;1.87;1.43;;;10.50;99.90;;;;;;6311129;22;20463;-60
2022/10/01 06:37:55;;;;;;;2.90;1.80;;;10.50;99.90;;;;;;6310855;22;20829;-60
2022/10/01 06:40:23;;;;;;;1.80;1.50;;;10.50;99.90;;;;;;6310101;22;20780;-58
2022/10/01 06:42:57;;;;;;;2.20;1.60;;;10.50;99.90;;;;;;6310454;22;20828;-59
2022/10/01 06:45:27;;;;;;;3.13;2.00;;;10.50;99.90;;;;;;6310329;22;20974;-61
2022/10/01 06:47:55;;;;;;;2.50;2.30;;;10.50;99.90;;;;;;6310701;22;20391;-59
2022/10/01 06:50:23;;;;;;;2.10;1.60;;;10.50;99.90;;;;;;6310126;22;20437;-60
2022/10/01 06:52:54;;;;;;;2.33;2.10;;;10.50;99.90;;;;;;6310887;22;20816;-62
2022/10/01 06:55:24;;;;;;;2.50;2.10;;;10.50;99.90;;;;;;6309988;22;20456;-63
2022/10/01 06:57:59;;;;;;;2.40;2.17;;;10.50;99.90;;;;;;6310962;22;20833;-63
2022/10/01 07:00:27;;;;;;;2.50;2.30;;;10.60;99.90;;;;;;6310012;22;20415;-62
2022/10/01 07:02:55;;;;;;;2.80;2.13;;;10.60;99.90;;;;;;6310218;22;20515;-62
2022/10/01 07:05:23;;;;;;;2.60;2.13;;;10.60;99.90;;;;;;6310263;22;20444;-61
2022/10/01 07:07:53;;;;;;;3.50;2.40;;;10.60;99.90;;;;;;6310313;22;20829;-63
2022/10/01 07:10:22;;;;;;;2.40;2.20;;;10.60;99.90;;;;;;6310277;22;20391;-62
2022/10/01 07:12:50;;;;;;;2.30;2.00;;;10.60;99.90;;;;;;6309519;22;20424;-61
2022/10/01 07:15:24;;;;;;;2.47;2.27;;;10.70;99.90;;;;;;6309813;22;20514;-61
2022/10/01 07:17:54;;;;;;;2.60;2.20;;;10.80;99.90;;;;;;6310258;22;20697;-59
2022/10/01 07:20:21;;;;;;;2.10;1.70;;;10.80;99.90;;;;;;6309551;22;20397;-61
2022/10/01 07:22:49;;;;;;;2.10;1.80;;;10.70;99.90;;;;;;6309131;22;20493;-59
2022/10/01 07:25:17;;;;;;;4.30;2.30;;;10.70;99.90;;;;;;6309254;22;20426;-60
2022/10/01 07:27:44;;;;;;;2.37;2.17;;;10.80;99.90;;;;;;6309973;22;20420;-60
2022/10/01 07:30:18;;;;;;;2.57;2.17;;;10.80;99.90;;;;;;6309723;22;20707;-61
2022/10/01 07:32:45;;;;;;;2.43;2.23;;;10.80;99.90;;;;;;6309430;22;20738;-61
2022/10/01 07:35:13;;;;;;;2.70;2.23;;;10.80;99.90;;;;;;6309269;22;20518;-59
2022/10/01 07:37:41;;;;;;;3.63;2.10;;;10.90;99.90;;;;;;6310437;22;20395;-61
2022/10/01 07:40:09;;;;;;;3.20;2.73;;;11.00;99.90;;;;;;6309499;22;20498;-62
2022/10/01 07:42:37;;;;;;;2.60;2.37;;;11.00;99.90;;;;;;6309943;22;20891;-61
2022/10/01 07:45:05;;;;;;;3.50;2.77;;;11.00;99.90;;;;;;6308352;22;20447;-61
2022/10/01 07:47:34;;;;;;;3.33;3.03;;;11.00;99.90;;;;;;6309452;22;20444;-59
2022/10/01 07:50:02;;;;;;;2.87;2.57;;;11.20;99.90;;;;;;6307940;22;20448;-59
2022/10/01 07:52:29;;;;;;;2.97;2.60;;;11.20;99.90;;;;;;6309388;22;20523;-62
2022/10/01 07:54:56;;;;;;;2.63;2.43;;;11.20;99.90;;;;;;6308803;22;20421;-61
2022/10/01 07:57:24;;;;;;;2.80;2.60;;;11.30;99.90;;;;;;6308173;22;20386;-60
2022/10/01 07:59:51;;;;;;;3.07;2.77;;;11.20;99.90;;;;;;6308596;22;20416;-61
2022/10/01 08:02:18;;;;;;;4.50;3.30;;;11.30;99.90;;;;;;6308574;22;20422;-61
2022/10/01 08:07:34;;;;;;;4.40;3.97;;;11.40;99.90;;;;;;6306867;22;20379;-60
2022/10/01 08:10:05;;;;;;;3.87;3.57;;;11.40;99.90;;;;;;6307214;22;20454;-62
2022/10/01 08:12:35;;;;;;;4.50;4.10;;;11.40;99.90;;;;;;6307831;22;20420;-60
2022/10/01 08:15:09;;;;;;;4.20;3.50;;;11.50;99.90;;;;;;6307508;22;20413;-62
2022/10/01 08:17:36;;;;;;;4.10;3.70;;;11.50;99.90;;;;;;6307983;22;20416;-63
2022/10/01 08:20:13;;;;;;;3.43;2.60;;;11.50;99.90;;;;;;6308270;22;20507;-63
2022/10/01 08:22:41;;;;;;;3.10;2.80;;;11.50;99.90;;;;;;6307721;22;20416;-64
2022/10/01 08:25:08;;;;;;;3.87;3.57;;;11.60;99.90;;;;;;6307419;22;20558;-63
2022/10/01 08:27:36;;;;;;;3.73;3.07;;;11.70;99.90;;;;;;6307921;22;20448;-63
2022/10/01 08:30:03;;;;;;;4.37;4.00;;;11.70;99.90;;;;;;6307348;22;20390;-63
2022/10/01 08:32:31;;;;;;;4.70;3.30;;;11.70;99.90;;;;;;6308775;22;20873;-62
2022/10/01 08:34:58;;;;;;;3.97;3.60;;;11.80;99.90;;;;;;6308780;22;20388;-62
2022/10/01 08:37:28;;;;;;;4.20;2.87;;;11.90;99.90;;;;;;6308162;22;20416;-62
2022/10/01 08:39:56;;;;;;;3.90;3.50;;;11.90;99.90;;;;;;6307959;22;20416;-61
2022/10/01 08:42:43;;;;;;;4.43;3.40;;;12.00;99.90;;;;;;6308199;22;20767;-62
2022/10/01 08:45:14;;;;;;;4.20;3.80;;;12.00;99.90;;;;;;6307894;22;20420;-61
2022/10/01 08:47:48;;;;;;;5.20;4.30;;;12.20;99.90;;;;;;6308946;22;20479;-62
2022/10/01 08:50:27;;;;;;;4.90;4.40;;;12.20;99.90;;;;;;6307843;22;20395;-61
2022/10/01 08:53:01;;;;;;;4.63;4.13;;;12.30;99.90;;;;;;6307676;22;20416;-61
2022/10/01 08:55:35;;;;;;;3.80;3.40;;;12.40;99.90;;;;;;6309129;22;20440;-61
2022/10/01 08:58:07;;;;;;;4.50;4.10;;;12.40;99.90;;;;;;6308877;22;20493;-62
2022/10/01 09:00:41;;;;;;;4.43;4.00;;;12.60;99.90;;;;;;6307754;22;20490;-62
2022/10/01 09:03:13;;;;;;;3.80;3.50;;;12.80;99.90;;;;;;6307898;22;20416;-62
2022/10/01 09:06:02;;;;;;;4.93;4.13;;;12.80;99.90;;;;;;6307159;22;20444;-61
2022/10/01 09:08:45;;;;;;;6.87;4.30;;;12.90;99.90;;;;;;6307423;22;20498;-58
2022/10/01 09:11:36;;;;;;;4.57;4.17;;;13.00;99.90;;;;;;6308692;22;20437;-61
2022/10/01 09:14:25;;;;;;;4.67;4.27;;;13.10;99.90;;;;;;6308178;22;20518;-61
2022/10/01 09:17:02;;;;;;;3.40;3.10;;;13.10;99.90;;;;;;6308416;22;20390;-61
2022/10/01 09:19:45;;;;;;;3.97;3.57;;;13.20;99.90;;;;;;6308166;22;20391;-61
2022/10/01 09:22:18;;;;;;;5.93;4.53;;;13.20;99.90;;;;;;6309269;22;20398;-59
2022/10/01 09:24:54;;;;;;;4.43;3.80;;;13.20;99.90;;;;;;6309422;22;20396;-56
2022/10/01 09:27:27;;;;;;;5.10;4.37;;;13.20;99.90;;;;;;6309930;22;20487;-61
2022/10/01 09:30:01;;;;;;;4.53;4.10;;;13.20;99.90;;;;;;6308814;22;20422;-60
2022/10/01 09:32:33;;;;;;;5.20;4.70;;;13.40;99.90;;;;;;6309818;22;20463;-60
2022/10/01 09:35:10;;;;;;;4.83;4.37;;;13.40;99.90;;;;;;6310508;22;20448;-60
2022/10/01 09:37:45;;;;;;;5.00;4.50;;;13.40;99.90;;;;;;6310101;22;20412;-59
2022/10/01 09:40:21;;;;;;;5.00;4.60;;;13.30;99.90;;;;;;6309491;22;20396;-60
2022/10/01 09:42:48;;;;;;;5.10;4.70;;;13.30;99.90;;;;;;6309536;22;20856;-57
2022/10/01 09:45:18;;;;;;;7.10;4.93;;;13.30;99.90;;;;;;6309991;22;20397;-59
2022/10/01 09:47:50;;;;;;;6.30;5.70;;;13.30;99.90;;;;;;6310129;22;20861;-60
2022/10/01 09:50:27;;;;;;;6.00;5.47;;;13.30;99.90;;;;;;6309598;22;20751;-60
2022/10/01 09:52:55;;;;;;;6.87;6.07;;;13.20;99.90;;;;;;6308589;22;21033;-56
2022/10/01 09:55:31;;;;;;;6.70;5.83;;;13.20;99.90;;;;;;6308266;22;20412;-60
2022/10/01 09:58:04;;;;;;;6.83;5.40;;;13.20;99.90;;;;;;6310143;22;20734;-64
2022/10/01 10:00:32;;;;;;;8.00;6.13;;;13.20;99.90;;;;;;6308844;22;20695;-62
2022/10/01 10:03:00;;;;;;;7.20;5.60;;;13.10;99.90;;;;;;6308391;22;20713;-59
2022/10/01 10:05:29;;;;;;;7.27;6.57;;;13.20;99.90;;;;;;6309089;22;20839;-63
2022/10/01 10:08:03;;;;;;;6.40;5.80;;;13.20;99.90;;;;;;6309073;22;20812;-64
2022/10/01 10:10:34;;;;;;;7.70;5.30;;;13.30;99.90;;;;;;6308749;22;20530;-64
2022/10/01 10:13:26;;;;;;;5.67;5.10;;;13.40;99.90;;;;;;6308964;22;20474;-64
2022/10/01 10:15:57;;;;;;;4.97;4.23;;;13.60;99.90;;;;;;6309420;22;20828;-63
2022/10/01 10:18:37;;;;;;;5.20;4.80;;;13.90;99.90;;;;;;6309275;22;20854;-63
2022/10/01 10:21:08;;;;;;;4.43;4.03;;;14.00;99.90;;;;;;6308703;22;20414;-63
2022/10/01 10:23:35;;;;;;;6.70;4.10;;;14.00;99.90;;;;;;6308952;22;20420;-62
2022/10/01 10:26:18;;;;;;;5.00;4.17;;;14.30;99.90;;;;;;6308181;22;20521;-63
2022/10/01 10:28:46;;;;;;;5.10;3.67;;;14.50;99.90;;;;;;6308553;22;20420;-64
2022/10/01 10:31:17;;;;;;;4.00;3.00;;;14.60;99.90;;;;;;6309642;22;20416;-63
2022/10/01 10:34:06;;;;;;;3.83;3.43;;;14.80;99.90;;;;;;6309043;22;20419;-63
2022/10/01 10:36:36;;;;;;;3.87;3.20;;;14.80;99.90;;;;;;6310230;22;20414;-62
2022/10/01 10:39:06;;;;;;;5.00;2.97;;;15.00;99.90;;;;;;6309365;22;20422;-62
2022/10/01 10:41:37;;;;;;;3.87;3.20;;;15.10;99.90;;;;;;6310027;22;20863;-61
2022/10/01 10:44:07;;;;;;;4.03;3.10;;;15.30;99.90;;;;;;6309054;22;20780;-61
2022/10/01 10:46:38;;;;;;;3.40;2.67;;;15.30;99.90;;;;;;6308955;22;20459;-62
2022/10/01 10:49:09;;;;;;;5.70;3.33;;;15.10;99.90;;;;;;6309391;22;20423;-61
2022/10/01 10:51:47;;;;;;;4.17;2.33;;;15.00;99.90;;;;;;6309124;22;20449;-62
2022/10/01 10:54:24;;;;;;;4.37;2.53;;;14.90;99.90;;;;;;6308882;22;20893;-62
2022/10/01 10:56:54;;;;;;;3.50;2.40;;;14.90;99.90;;;;;;6309013;22;20419;-62
2022/10/01 10:59:30;;;;;;;5.87;2.90;;;14.80;99.90;;;;;;6308764;22;20391;-61
2022/10/01 11:02:04;;;;;;;3.67;2.83;;;14.90;99.90;;;;;;6308718;22;20455;-61
2022/10/01 11:04:44;;;;;;;5.60;3.13;;;15.10;99.90;;;;;;6308878;22;20408;-61
2022/10/01 11:07:21;;;;;;;5.80;2.83;;;15.30;99.90;;;;;;6309057;22;20517;-61
2022/10/01 11:10:17;;;;;;;8.00;3.80;;;15.30;99.90;;;;;;6309143;22;20416;-62
2022/10/01 11:13:05;;;;;;;3.67;3.30;;;15.30;99.90;;;;;;6309167;22;20391;-62
2022/10/01 11:15:50;;;;;;;7.10;3.90;;;15.20;99.90;;;;;;6309086;22;20477;-61
2022/10/01 11:18:49;;;;;;;4.93;3.40;;;14.90;99.90;;;;;;6308287;22;20420;-61
2022/10/01 11:21:31;;;;;;;8.00;4.27;;;14.70;99.90;;;;;;6309374;22;20416;-61
2022/10/01 11:24:32;;;;;;;6.47;4.13;;;14.70;99.90;;;;;;6309375;22;20416;-62
2022/10/01 11:27:06;;;;;;;7.23;4.27;;;15.00;99.90;;;;;;6291211;22;20882;-62
2022/10/01 11:29:47;;;;;;;7.00;4.07;;;15.40;99.90;;;;;;6309362;22;20411;-62
2022/10/01 11:32:22;;;;;;;6.40;4.20;;;15.80;99.90;;;;;;6307271;22;20394;-62
2022/10/01 11:35:21;;;;;;;6.90;3.80;;;16.30;99.90;;;;;;6308528;22;20416;-62
2022/10/01 11:38:05;;;;;;;7.70;4.10;;;16.30;99.90;;;;;;6288423;22;20432;-63
2022/10/01 11:40:37;;;;;;;11.77;4.63;;;16.70;99.90;;;;;;6308378;22;20430;-63
2022/10/01 11:43:13;;;;;;;9.57;4.30;;;17.20;99.90;;;;;;6309021;22;20812;-63
2022/10/01 11:45:49;;;;;;;6.70;3.93;;;18.00;99.90;;;;;;6309201;22;20484;-63
2022/10/01 11:48:23;;;;;;;6.67;4.10;;;18.40;99.90;;;;;;6308125;22;20448;-64
2022/10/01 11:50:53;;;;;;;9.27;4.47;;;18.20;1.00;;;;;;6309467;22;20853;-64
2022/10/01 11:53:29;;;;;;;7.83;4.47;;;17.70;1.00;;;;;;6310083;22;20706;-64
2022/10/01 11:59:01;;;;;;;7.87;4.40;;;16.80;1.00;;;;;;6252773;22;20400;-63
2022/10/01 12:01:35;;;;;;;8.00;4.10;;;16.50;1.00;;;;;;6307796;22;20499;-63
2022/10/01 12:04:12;;;;;;;4.80;3.30;;;16.20;1.00;;;;;;6308574;22;20407;-64
2022/10/01 12:06:49;;;;;;;8.57;4.17;;;16.10;1.00;;;;;;6309159;22;20451;-64
2022/10/01 12:09:23;;;;;;;7.00;3.93;;;16.70;13.40;;;;;;6307901;22;20424;-65
2022/10/01 12:11:59;;;;;;;12.67;4.33;;;17.20;1.00;;;;;;6307125;22;20481;-65
2022/10/01 12:14:32;;;;;;;4.93;3.07;;;17.70;1.00;;;;;;6307970;22;20459;-66
2022/10/01 12:17:11;;;;;;;9.53;4.70;;;18.40;1.00;;;;;;6308762;22;20470;-65
2022/10/01 12:19:43;;;;;;;7.73;3.20;;;18.30;1.00;;;;;;6308275;22;20419;-65
2022/10/01 12:22:19;;;;;;;6.10;3.33;;;17.90;99.90;;;;;;6309347;22;20695;-66
2022/10/01 12:24:50;;;;;;;7.53;3.90;;;17.90;99.90;;;;;;6308274;22;20415;-65
2022/10/01 12:27:33;;;;;;;5.63;3.57;;;17.80;99.90;;;;;;6309567;22;20448;-66
2022/10/01 12:30:05;;;;;;;7.23;3.90;;;17.30;99.90;;;;;;6308015;22;20420;-66
2022/10/01 12:32:47;;;;;;;7.40;3.40;;;16.80;99.90;;;;;;6307431;22;20438;-66
2022/10/01 12:35:38;;;;;;;7.90;3.90;;;16.60;99.90;;;;;;6307055;22;20420;-65
2022/10/01 12:38:23;;;;;;;7.40;4.17;;;16.30;1.00;;;;;;6307391;22;20412;-65
2022/10/01 12:40:57;;;;;;;11.90;4.47;;;16.10;1.00;;;;;;6305525;22;20859;-65
2022/10/01 12:43:37;;;;;;;10.70;4.20;;;16.10;1.00;;;;;;6307575;22;20438;-65
2022/10/01 12:46:16;;;;;;;5.50;3.90;;;16.20;1.00;;;;;;6307052;22;20415;-65
2022/10/01 12:48:59;;;;;;;10.30;5.33;;;16.20;1.00;;;;;;6305710;22;20697;-65
2022/10/01 12:51:42;;;;;;;7.70;4.03;;;16.10;1.00;;;;;;6308302;22;20726;-63
2022/10/01 12:54:40;;;;;;;6.20;3.10;;;15.50;1.00;;;;;;6308386;22;20416;-62
2022/10/01 12:57:18;;;;;;;10.90;3.23;;;14.90;1.00;;;;;;6306423;22;20720;-64
2022/10/01 13:00:16;;;;;;;7.13;4.23;;;14.60;1.00;;;;;;6306811;22;20824;-64
2022/10/01 13:03:12;;;;;;;10.13;4.63;;;14.40;68.90;;;;;;6307058;22;20399;-63
2022/10/01 13:05:53;;;;;;;4.47;3.10;;;14.30;99.90;;;;;;6307879;22;20410;-63
2022/10/01 13:08:42;;;;;;;7.93;4.70;;;14.30;99.90;;;;;;6308293;22;20521;-63
2022/10/01 13:11:23;;;;;;;6.97;3.77;;;14.50;16.00;;;;;;6307517;22;20445;-63
2022/10/01 13:13:52;;;;;;;6.73;3.47;;;14.90;99.90;;;;;;6309863;22;20416;-63
2022/10/01 13:16:28;;;;;;;8.40;3.90;;;15.20;1.00;;;;;;6308345;22;20415;-62
2022/10/01 13:19:03;;;;;;;8.23;3.80;;;15.60;99.90;;;;;;6307773;22;20841;-62
2022/10/01 13:21:46;;;;;;;6.40;3.43;;;15.90;99.90;;;;;;6308884;22;20415;-62